Aérodrome :
LOGIN :

S'inscrire | Disclaimer

   EN    FR    IT 

 










Légende :    VFR   VFR Marginal   IFR   IFR Intensif   IFR Très Intensif
Visi : 
Plafond : 
>= 8 km
>= 3000ft
5 à 8 km
1000 à 3000 ft
1500m à 5 km
500 à 1000 ft
800 à 1500m
200 à 500 ft
< 800m
< 200 ft
Symboles :   Orages  Brouillard  Fortes neiges  Fortes précipitations  Vent > 20 kt
SIGMETs :   Divers  Orages  Givrage  Turbulence  Onde Orograph.  Cendres Volcan.







- Altitude de l'aérodrome : 3 ft
- Code IATA : DHR


EHKD - Den Helder De Kooy

DERNIER METAR :
  • 251525Z AUTO 35015KT 290V030 9999 FEW014 BKN016 BKN021 09/05 Q1026 WHT 35017G27KT 9999 SCT016 BKN025

METARs EXPIRÉS :
  • 251455Z AUTO 34016G28KT 290V030 9999 SCT016 SCT021 BKN025 09/05 Q1026 WHT 33019G31KT 9999 SCT016 BKN025
  • 251425Z AUTO 33020G31KT 300V020 9999 SCT016 BKN019 BKN026 09/05 Q1025 WHT 33019G31KT 9999 SCT016 BKN025
  • 251355Z AUTO 33020G32KT 290V030 9999 BKN016 BKN020 09/05 Q1025 WHT 33020G32KT 9999 SCT017 BKN030
  • 251325Z AUTO 33018G33KT 290V030 9999 SCT017 BKN021 OVC025 09/05 Q1025 WHT 33020G32KT 9999 SCT017 BKN030
  • 251255Z AUTO 32018KT 280V010 9999 SCT017 BKN021 BKN024 09/05 Q1024 WHT 33022G32KT 9999 SCT020 BKN030
  • 251232Z AUTO 32018G30KT 280V010 9999 FEW019 BKN024 BKN043 09/05 Q1024 WHT 33022G32KT 9999 SCT035 TEMPO SHRA SCT018CB BKN030

TAF TAF EHKD
Valide du 25 à 14h jusqu'au 26 à 02h UTC


251338Z 2514/2602 34020G30KT 9999 BKN017
BECMG 2514/2516 35014KT
BECMG 2522/2524 33008KT
Pas de NOTAMs connus pour ce terrain.



MET'MAP, la Météo Aéronautique d'un coup d'oeil ! - Copyright ORBIFLY Décembre 2007 - Disclaimer

ORBIFLY MET'MAP TEAM :

Programmation & Développement : Alexandra Zaïnal
Conception & Développement : Baudouin d'Aumeries
Co-Programmation & Développement : Marc-Olivier Méhu
Soutien technique & logistique : Manuel Goepfert

Contact : metmap@orbifly.com




SOURCES & CREDITS :

   NOAA